Time;durP1;ratioP1;P1;durP2;ratioP2;P2;SDS_P1;SDS_P2;PMS_P1;PMS_P2;Temp;Humidity;BMP_temperature;BMP_pressure;BME280_temperature;BME280_humidity;BME280_pressure;Samples;Min_cycle;Max_cycle;Signal;HPM_P1;HPM_P2
2023/07/05 00:00:41;;;;;;;19.20;11.02;;;;;;;;;;5046729;28;20292;-77
2023/07/05 00:03:06;;;;;;;18.70;11.50;;;;;;;;;;5038652;28;20222;-77
2023/07/05 00:05:34;;;;;;;19.63;11.90;;;;;;;;;;5041698;28;20291;-77
2023/07/05 00:07:59;;;;;;;20.58;12.07;;;;;;;;;;5056738;28;20237;-78
2023/07/05 00:10:24;;;;;;;18.40;11.80;;;;;;;;;;5036759;28;20749;-77
2023/07/05 00:12:49;;;;;;;19.23;11.93;;;;;;;;;;5045695;28;20283;-77
2023/07/05 00:15:15;;;;;;;18.50;11.95;;;;;;;;;;5040201;28;20230;-77
2023/07/05 00:17:40;;;;;;;20.25;11.90;;;;;;;;;;5031795;28;20851;-77
2023/07/05 00:20:06;;;;;;;22.52;11.73;;;;;;;;;;5038358;28;20300;-77
2023/07/05 00:22:31;;;;;;;18.30;11.65;;;;;;;;;;5047505;28;20605;-77
2023/07/05 00:24:56;;;;;;;20.63;11.23;;;;;;;;;;5046378;28;20234;-77
2023/07/05 00:27:22;;;;;;;17.90;11.38;;;;;;;;;;5023121;28;20217;-77
2023/07/05 00:29:47;;;;;;;17.23;11.30;;;;;;;;;;5023117;28;20256;-77
2023/07/05 00:32:12;;;;;;;18.92;11.15;;;;;;;;;;5054426;28;20240;-77
2023/07/05 00:34:38;;;;;;;17.50;11.75;;;;;;;;;;5055835;28;20235;-77
2023/07/05 00:37:03;;;;;;;18.42;11.40;;;;;;;;;;5058276;28;20296;-77
2023/07/05 00:39:28;;;;;;;17.00;10.95;;;;;;;;;;5051033;28;20221;-77
2023/07/05 00:41:54;;;;;;;16.20;10.70;;;;;;;;;;5032519;28;20226;-78
2023/07/05 00:44:19;;;;;;;16.02;10.82;;;;;;;;;;5035593;28;20237;-77
2023/07/05 00:46:45;;;;;;;17.00;11.50;;;;;;;;;;5039470;28;20217;-78
2023/07/05 00:49:15;;;;;;;17.80;11.32;;;;;;;;;;5035115;28;20332;-77
2023/07/05 00:52:06;;;;;;;18.42;11.45;;;;;;;;;;5048717;28;20224;-77
2023/07/05 00:54:32;;;;;;;15.88;10.82;;;;;;;;;;5048736;28;20218;-77
2023/07/05 00:57:11;;;;;;;16.52;11.32;;;;;;;;;;5034244;28;20233;-77
2023/07/05 00:59:41;;;;;;;15.70;11.38;;;;;;;;;;5050871;28;20224;-77
2023/07/05 01:02:06;;;;;;;18.92;11.38;;;;;;;;;;5040014;28;20221;-78
2023/07/05 01:04:31;;;;;;;18.83;11.23;;;;;;;;;;5050528;28;20314;-77
2023/07/05 01:06:57;;;;;;;17.10;11.30;;;;;;;;;;5053350;28;20226;-77
2023/07/05 01:09:26;;;;;;;15.90;10.93;;;;;;;;;;5040058;28;20220;-77
2023/07/05 01:12:03;;;;;;;17.52;11.00;;;;;;;;;;5032167;28;20257;-77
2023/07/05 01:14:28;;;;;;;16.38;10.77;;;;;;;;;;5048501;28;20275;-77
2023/07/05 01:16:57;;;;;;;18.65;11.45;;;;;;;;;;5054265;28;20233;-77
2023/07/05 01:19:26;;;;;;;17.42;11.35;;;;;;;;;;5049669;28;20228;-78
2023/07/05 01:21:59;;;;;;;17.65;10.95;;;;;;;;;;5050979;28;20223;-77
2023/07/05 01:24:40;;;;;;;14.68;10.32;;;;;;;;;;5032939;28;20225;-77
2023/07/05 01:27:09;;;;;;;14.82;10.95;;;;;;;;;;5033597;28;20222;-76
2023/07/05 01:29:34;;;;;;;17.38;10.98;;;;;;;;;;5053266;28;20229;-77
2023/07/05 01:32:03;;;;;;;17.98;11.27;;;;;;;;;;5046090;28;20229;-78
2023/07/05 01:34:35;;;;;;;15.70;11.13;;;;;;;;;;5035395;28;20225;-77
2023/07/05 01:37:03;;;;;;;15.93;11.10;;;;;;;;;;5050956;28;20225;-77
2023/07/05 01:39:28;;;;;;;18.17;11.20;;;;;;;;;;5028985;28;20221;-77
2023/07/05 01:41:53;;;;;;;16.45;11.20;;;;;;;;;;5053555;28;20290;-77
2023/07/05 01:44:19;;;;;;;16.73;11.05;;;;;;;;;;5032399;28;20674;-76
2023/07/05 01:46:53;;;;;;;18.85;11.75;;;;;;;;;;5048054;28;20785;-77
2023/07/05 01:49:18;;;;;;;16.60;11.48;;;;;;;;;;5034632;28;20248;-76
2023/07/05 01:51:52;;;;;;;19.00;11.57;;;;;;;;;;5050355;28;20691;-77
2023/07/05 01:54:37;;;;;;;17.83;11.73;;;;;;;;;;5052328;28;20217;-77
2023/07/05 01:57:05;;;;;;;21.08;11.40;;;;;;;;;;5047755;28;20216;-77
2023/07/05 01:59:33;;;;;;;16.17;11.30;;;;;;;;;;5053139;28;20249;-77
2023/07/05 02:01:58;;;;;;;17.80;11.32;;;;;;;;;;5033583;28;20863;-77
2023/07/05 02:04:23;;;;;;;16.83;11.52;;;;;;;;;;5041566;28;20236;-77
2023/07/05 02:06:49;;;;;;;17.10;11.30;;;;;;;;;;5030749;28;20217;-77
2023/07/05 02:09:14;;;;;;;17.85;11.73;;;;;;;;;;5035707;28;20709;-77
2023/07/05 02:11:39;;;;;;;16.38;11.27;;;;;;;;;;5035647;28;20386;-77
2023/07/05 02:14:05;;;;;;;19.95;11.40;;;;;;;;;;5046827;28;20321;-77
2023/07/05 02:16:30;;;;;;;18.90;11.63;;;;;;;;;;5033476;28;20213;-77
2023/07/05 02:18:55;;;;;;;17.95;11.57;;;;;;;;;;5036747;28;20225;-76
2023/07/05 02:21:21;;;;;;;16.38;11.23;;;;;;;;;;5048198;28;20217;-77
2023/07/05 02:23:46;;;;;;;17.33;11.45;;;;;;;;;;5033873;28;20333;-77
2023/07/05 02:26:11;;;;;;;17.70;11.38;;;;;;;;;;5048269;28;20217;-77
2023/07/05 02:28:37;;;;;;;16.90;11.40;;;;;;;;;;5046470;28;20908;-76
2023/07/05 02:31:06;;;;;;;17.35;11.27;;;;;;;;;;5053425;28;20217;-77
2023/07/05 02:33:32;;;;;;;18.25;11.60;;;;;;;;;;5048818;28;20220;-76
2023/07/05 02:35:57;;;;;;;19.83;11.60;;;;;;;;;;5045785;28;20370;-77
2023/07/05 02:38:22;;;;;;;18.33;12.45;;;;;;;;;;5044946;28;20218;-77
2023/07/05 02:40:48;;;;;;;16.48;11.93;;;;;;;;;;5050147;28;20312;-77
2023/07/05 02:43:13;;;;;;;17.20;11.40;;;;;;;;;;5047654;28;20225;-77
2023/07/05 02:45:38;;;;;;;16.80;12.13;;;;;;;;;;5046287;28;20245;-77
2023/07/05 02:48:04;;;;;;;19.75;12.40;;;;;;;;;;5032949;28;20731;-77
2023/07/05 02:50:29;;;;;;;19.33;12.15;;;;;;;;;;5035053;28;20217;-77
2023/07/05 02:52:54;;;;;;;19.45;12.68;;;;;;;;;;5050550;28;20240;-77
2023/07/05 02:55:19;;;;;;;22.42;12.52;;;;;;;;;;5050906;28;20213;-77
2023/07/05 02:57:45;;;;;;;17.38;12.13;;;;;;;;;;5046622;28;20244;-77
2023/07/05 03:00:10;;;;;;;18.90;12.50;;;;;;;;;;5049591;28;20225;-77
2023/07/05 03:02:35;;;;;;;17.77;11.83;;;;;;;;;;5036254;28;20221;-76
2023/07/05 03:05:19;;;;;;;16.70;12.05;;;;;;;;;;5020488;28;20249;-77
2023/07/05 03:07:44;;;;;;;20.37;12.63;;;;;;;;;;5021284;28;20225;-76
2023/07/05 03:10:09;;;;;;;18.40;12.40;;;;;;;;;;5035744;28;20222;-77
2023/07/05 03:12:35;;;;;;;18.48;12.18;;;;;;;;;;5032513;28;20305;-78
2023/07/05 03:15:00;;;;;;;17.88;12.10;;;;;;;;;;5040482;28;20302;-77
2023/07/05 03:17:25;;;;;;;20.25;12.00;;;;;;;;;;5031125;28;20221;-77
2023/07/05 03:19:54;;;;;;;20.98;12.35;;;;;;;;;;5034074;28;20222;-77
2023/07/05 03:22:19;;;;;;;19.45;12.15;;;;;;;;;;5049563;28;20220;-77
2023/07/05 03:24:45;;;;;;;17.92;11.90;;;;;;;;;;5048747;28;20679;-78
2023/07/05 03:27:11;;;;;;;19.55;12.40;;;;;;;;;;5051172;28;20238;-78
2023/07/05 03:29:36;;;;;;;18.63;12.40;;;;;;;;;;5050171;28;20224;-77
2023/07/05 03:32:02;;;;;;;18.95;11.93;;;;;;;;;;5051587;28;20296;-78
2023/07/05 03:34:27;;;;;;;22.98;12.10;;;;;;;;;;5027081;28;20276;-78
2023/07/05 03:36:52;;;;;;;21.67;12.40;;;;;;;;;;5043719;28;20240;-78
2023/07/05 03:39:18;;;;;;;20.10;12.35;;;;;;;;;;5041804;28;20275;-78
2023/07/05 03:41:43;;;;;;;20.05;12.52;;;;;;;;;;5043925;28;20225;-78
2023/07/05 03:44:08;;;;;;;19.70;13.02;;;;;;;;;;5035464;28;20238;-77
2023/07/05 03:46:33;;;;;;;22.30;12.63;;;;;;;;;;5032704;28;20208;-78
2023/07/05 03:48:59;;;;;;;21.70;13.07;;;;;;;;;;5033641;28;20301;-80
2023/07/05 03:51:25;;;;;;;18.25;12.10;;;;;;;;;;5031640;28;20222;-79
2023/07/05 03:53:51;;;;;;;19.48;12.02;;;;;;;;;;5028343;28;20218;-79
2023/07/05 03:56:16;;;;;;;16.50;12.13;;;;;;;;;;5038561;28;21231;-78
2023/07/05 03:58:42;;;;;;;20.42;12.55;;;;;;;;;;5045063;28;20600;-78
2023/07/05 04:01:17;;;;;;;17.85;12.45;;;;;;;;;;5053195;28;20216;-78
2023/07/05 04:03:43;;;;;;;19.25;12.35;;;;;;;;;;5040410;28;20228;-79
2023/07/05 04:06:11;;;;;;;18.27;12.60;;;;;;;;;;5023213;28;20854;-78
2023/07/05 04:08:37;;;;;;;18.48;12.90;;;;;;;;;;5043784;28;20237;-78
2023/07/05 04:11:02;;;;;;;18.33;12.35;;;;;;;;;;5033440;28;21024;-78
2023/07/05 04:13:27;;;;;;;22.77;12.57;;;;;;;;;;5046114;28;20236;-78
2023/07/05 04:16:02;;;;;;;18.33;12.82;;;;;;;;;;5050095;28;21042;-78
2023/07/05 04:18:28;;;;;;;20.10;12.55;;;;;;;;;;5036099;28;20315;-78
2023/07/05 04:20:53;;;;;;;18.02;12.68;;;;;;;;;;5044222;28;20347;-78
2023/07/05 04:23:19;;;;;;;21.20;12.73;;;;;;;;;;5041656;28;20234;-77
2023/07/05 04:25:44;;;;;;;19.23;12.65;;;;;;;;;;5047960;28;20286;-78
2023/07/05 04:28:09;;;;;;;18.00;12.75;;;;;;;;;;5035568;28;20213;-78
2023/07/05 04:30:34;;;;;;;18.25;12.45;;;;;;;;;;5018916;28;20223;-78
2023/07/05 04:33:00;;;;;;;20.52;12.93;;;;;;;;;;5015491;28;20230;-77
2023/07/05 04:35:25;;;;;;;18.88;12.93;;;;;;;;;;5018905;28;20223;-77
2023/07/05 04:37:50;;;;;;;17.17;12.50;;;;;;;;;;5018132;28;20218;-77
2023/07/05 04:40:17;;;;;;;23.23;13.98;;;;;;;;;;5021311;28;20272;-78
2023/07/05 04:42:42;;;;;;;19.88;12.30;;;;;;;;;;5018681;28;20628;-78
2023/07/05 04:45:08;;;;;;;18.88;12.07;;;;;;;;;;5008384;28;20227;-77
2023/07/05 04:47:33;;;;;;;16.35;12.10;;;;;;;;;;5015680;28;20620;-76
2023/07/05 04:49:58;;;;;;;21.23;13.35;;;;;;;;;;5007550;28;20272;-77
2023/07/05 04:52:23;;;;;;;21.25;13.60;;;;;;;;;;5007286;28;20218;-77
2023/07/05 04:54:49;;;;;;;19.65;12.73;;;;;;;;;;5024560;28;20218;-77
2023/07/05 04:57:14;;;;;;;24.85;13.23;;;;;;;;;;5006623;28;20316;-76
2023/07/05 04:59:43;;;;;;;22.27;13.18;;;;;;;;;;5012374;28;20233;-77
2023/07/05 05:02:09;;;;;;;22.85;13.30;;;;;;;;;;5032132;28;20223;-77
2023/07/05 05:04:34;;;;;;;25.08;13.23;;;;;;;;;;5048586;28;20336;-76
2023/07/05 05:07:00;;;;;;;18.95;12.75;;;;;;;;;;5039749;28;20718;-76
2023/07/05 05:09:25;;;;;;;18.33;12.63;;;;;;;;;;5034920;28;20225;-77
2023/07/05 05:11:50;;;;;;;20.33;12.77;;;;;;;;;;5052146;28;20254;-76
2023/07/05 05:14:16;;;;;;;21.02;12.85;;;;;;;;;;5048801;28;20216;-77
2023/07/05 05:16:41;;;;;;;19.48;12.13;;;;;;;;;;5025032;28;20226;-77
2023/07/05 05:19:40;;;;;;;22.67;12.57;;;;;;;;;;5080339;27;20589;-77
2023/07/05 05:22:05;;;;;;;20.23;12.75;;;;;;;;;;5077399;28;20243;-78
2023/07/05 05:24:31;;;;;;;20.17;13.18;;;;;;;;;;5061374;28;20228;-78
2023/07/05 05:26:56;;;;;;;19.02;13.18;;;;;;;;;;5043782;28;20231;-77
2023/07/05 05:29:21;;;;;;;20.63;12.43;;;;;;;;;;5043755;28;20228;-77
2023/07/05 05:31:47;;;;;;;20.20;12.75;;;;;;;;;;5062132;28;20675;-77
2023/07/05 05:34:13;;;;;;;19.30;12.48;;;;;;;;;;5060410;28;20350;-78
2023/07/05 05:36:38;;;;;;;21.77;12.88;;;;;;;;;;5061936;28;20252;-78
2023/07/05 05:39:03;;;;;;;19.17;13.13;;;;;;;;;;5061722;28;20668;-78
2023/07/05 05:41:28;;;;;;;22.02;13.23;;;;;;;;;;5061758;28;20225;-79
2023/07/05 05:43:54;;;;;;;19.52;12.75;;;;;;;;;;5059524;28;20239;-78
2023/07/05 05:46:20;;;;;;;20.58;13.05;;;;;;;;;;5062089;28;20217;-79
2023/07/05 05:48:45;;;;;;;21.33;13.23;;;;;;;;;;5047229;28;20253;-78
2023/07/05 05:51:10;;;;;;;20.40;13.38;;;;;;;;;;5052589;28;20251;-78
2023/07/05 05:53:36;;;;;;;21.23;13.25;;;;;;;;;;5061479;28;20220;-77
2023/07/05 05:56:01;;;;;;;21.10;13.52;;;;;;;;;;5056471;28;20224;-78
2023/07/05 05:58:26;;;;;;;21.10;14.20;;;;;;;;;;5044230;28;20927;-78
2023/07/05 06:00:52;;;;;;;22.02;13.70;;;;;;;;;;5058014;28;20237;-77
2023/07/05 06:03:17;;;;;;;18.65;13.35;;;;;;;;;;5062067;28;20609;-79
2023/07/05 06:05:42;;;;;;;20.27;13.13;;;;;;;;;;5044629;28;20324;-78
2023/07/05 06:08:08;;;;;;;20.10;13.68;;;;;;;;;;5042825;28;20224;-78
2023/07/05 06:10:33;;;;;;;21.75;13.35;;;;;;;;;;5044218;28;20615;-78
2023/07/05 06:12:58;;;;;;;19.52;13.13;;;;;;;;;;5059777;28;20217;-78
2023/07/05 06:15:24;;;;;;;18.98;12.85;;;;;;;;;;5044008;28;20217;-78
2023/07/05 06:17:49;;;;;;;19.25;12.70;;;;;;;;;;5042883;28;20332;-78
2023/07/05 06:20:14;;;;;;;20.05;12.45;;;;;;;;;;5050394;28;20236;-78
2023/07/05 06:22:40;;;;;;;23.85;13.30;;;;;;;;;;5060807;28;20310;-79
2023/07/05 06:25:05;;;;;;;24.25;12.75;;;;;;;;;;5055826;28;21433;-78
2023/07/05 06:27:31;;;;;;;24.80;12.57;;;;;;;;;;5043920;28;20294;-80
2023/07/05 06:29:56;;;;;;;23.08;14.88;;;;;;;;;;5051646;28;20225;-80
2023/07/05 06:32:21;;;;;;;21.00;13.00;;;;;;;;;;5029645;28;20332;-78
2023/07/05 06:34:47;;;;;;;20.55;12.73;;;;;;;;;;5045820;28;20308;-78
2023/07/05 06:37:12;;;;;;;19.42;11.95;;;;;;;;;;5046159;28;20217;-79
2023/07/05 06:39:37;;;;;;;17.17;11.48;;;;;;;;;;5030133;28;20311;-79
2023/07/05 06:42:03;;;;;;;20.48;11.73;;;;;;;;;;5046845;28;20639;-78
2023/07/05 06:44:28;;;;;;;17.90;11.68;;;;;;;;;;5043104;28;20300;-79
2023/07/05 06:46:53;;;;;;;21.85;11.38;;;;;;;;;;5041379;28;20239;-78
2023/07/05 06:49:19;;;;;;;17.05;11.55;;;;;;;;;;5050555;28;20706;-79
2023/07/05 06:51:44;;;;;;;24.92;11.15;;;;;;;;;;5065132;28;20274;-79
2023/07/05 06:54:09;;;;;;;19.75;10.82;;;;;;;;;;5047812;28;20686;-78
2023/07/05 06:56:35;;;;;;;17.23;10.90;;;;;;;;;;5049259;28;20224;-78
2023/07/05 06:59:00;;;;;;;17.20;11.20;;;;;;;;;;5048747;28;20706;-78
2023/07/05 07:01:26;;;;;;;15.70;11.20;;;;;;;;;;5065947;28;20209;-79
2023/07/05 07:03:51;;;;;;;18.30;11.35;;;;;;;;;;5064889;28;20235;-79
2023/07/05 07:06:16;;;;;;;19.67;12.07;;;;;;;;;;5049644;28;20248;-78
2023/07/05 07:08:42;;;;;;;17.95;11.10;;;;;;;;;;5064939;28;20726;-77
2023/07/05 07:11:07;;;;;;;16.27;11.30;;;;;;;;;;5067116;28;20231;-78
2023/07/05 07:13:33;;;;;;;25.40;12.20;;;;;;;;;;5066860;28;20263;-77
2023/07/05 07:16:08;;;;;;;16.02;11.35;;;;;;;;;;5064662;28;20765;-78
2023/07/05 07:18:36;;;;;;;16.77;11.43;;;;;;;;;;5048322;28;20263;-78
2023/07/05 07:21:01;;;;;;;18.60;10.65;;;;;;;;;;5064790;28;20286;-79
2023/07/05 07:23:27;;;;;;;16.35;11.75;;;;;;;;;;5065227;28;20250;-78
2023/07/05 07:25:59;;;;;;;20.70;12.13;;;;;;;;;;5064995;28;20235;-78
2023/07/05 07:28:24;;;;;;;19.90;11.60;;;;;;;;;;5048730;28;20208;-79
2023/07/05 07:30:49;;;;;;;18.70;11.63;;;;;;;;;;5067016;28;20229;-79
2023/07/05 07:33:14;;;;;;;19.80;11.35;;;;;;;;;;5060382;28;20228;-79
2023/07/05 07:35:40;;;;;;;16.98;11.10;;;;;;;;;;5060153;28;20287;-79
2023/07/05 07:38:05;;;;;;;21.67;11.52;;;;;;;;;;5066214;28;20236;-79
2023/07/05 07:40:34;;;;;;;17.70;11.23;;;;;;;;;;5065239;28;20313;-78
2023/07/05 07:43:00;;;;;;;23.45;11.02;;;;;;;;;;5047687;28;20221;-78
2023/07/05 07:45:27;;;;;;;20.60;11.65;;;;;;;;;;5045997;28;20282;-79
2023/07/05 07:47:52;;;;;;;18.67;11.18;;;;;;;;;;5055387;28;20244;-78
2023/07/05 07:50:17;;;;;;;19.15;11.13;;;;;;;;;;5048699;28;20247;-78
2023/07/05 07:52:42;;;;;;;20.95;11.23;;;;;;;;;;5063656;28;21038;-79
2023/07/05 07:55:09;;;;;;;16.02;11.13;;;;;;;;;;5048283;28;20299;-80
2023/07/05 07:57:34;;;;;;;16.90;10.70;;;;;;;;;;5047980;28;20255;-77
2023/07/05 08:00:00;;;;;;;17.42;11.13;;;;;;;;;;5064404;28;20233;-81
2023/07/05 08:02:25;;;;;;;17.13;10.93;;;;;;;;;;5066202;28;20213;-80
2023/07/05 08:04:50;;;;;;;16.38;11.15;;;;;;;;;;5063038;28;20251;-80
2023/07/05 08:07:16;;;;;;;18.45;11.25;;;;;;;;;;5065474;28;20220;-79
2023/07/05 08:09:41;;;;;;;17.98;11.43;;;;;;;;;;5062634;28;20296;-80
2023/07/05 08:12:08;;;;;;;19.30;11.98;;;;;;;;;;5066360;28;20314;-79
2023/07/05 08:14:33;;;;;;;17.35;11.18;;;;;;;;;;5064639;28;20350;-82
2023/07/05 08:16:58;;;;;;;17.52;12.25;;;;;;;;;;5065512;28;20788;-79
2023/07/05 08:19:24;;;;;;;18.25;12.18;;;;;;;;;;5034983;28;20225;-79
2023/07/05 08:21:49;;;;;;;17.48;11.23;;;;;;;;;;5045425;28;20705;-79
2023/07/05 08:24:15;;;;;;;14.43;10.93;;;;;;;;;;5047573;28;20701;-79
2023/07/05 08:26:41;;;;;;;16.98;11.05;;;;;;;;;;5061509;28;20234;-79
2023/07/05 08:29:08;;;;;;;17.90;10.88;;;;;;;;;;5063740;28;20767;-79
2023/07/05 08:31:33;;;;;;;15.88;10.68;;;;;;;;;;5064469;28;20243;-79
2023/07/05 08:33:58;;;;;;;17.63;11.27;;;;;;;;;;5063300;28;20228;-81
2023/07/05 08:36:28;;;;;;;17.92;11.10;;;;;;;;;;5048819;28;20228;-79
2023/07/05 08:38:55;;;;;;;16.65;11.55;;;;;;;;;;5066383;28;20264;-79
2023/07/05 08:41:27;;;;;;;19.52;11.32;;;;;;;;;;5065193;28;20232;-80
2023/07/05 08:43:58;;;;;;;14.82;11.45;;;;;;;;;;5063984;28;20617;-80
2023/07/05 08:46:23;;;;;;;17.42;11.18;;;;;;;;;;5064359;28;20228;-80
2023/07/05 08:48:48;;;;;;;17.13;11.05;;;;;;;;;;5063361;28;20293;-78
2023/07/05 08:51:14;;;;;;;18.13;11.13;;;;;;;;;;5064912;28;21011;-79
2023/07/05 08:53:47;;;;;;;16.20;11.05;;;;;;;;;;5065020;28;20224;-79
2023/07/05 08:56:14;;;;;;;15.23;11.07;;;;;;;;;;5048917;28;20220;-79
2023/07/05 08:58:40;;;;;;;15.88;11.27;;;;;;;;;;5063971;28;20267;-80
2023/07/05 09:01:06;;;;;;;17.50;10.55;;;;;;;;;;5064527;28;20721;-80
2023/07/05 09:03:31;;;;;;;22.60;11.00;;;;;;;;;;5048045;28;20243;-80
2023/07/05 09:06:03;;;;;;;15.02;10.70;;;;;;;;;;5064150;28;20328;-80
2023/07/05 09:08:48;;;;;;;18.48;11.00;;;;;;;;;;5064871;28;20251;-80
2023/07/05 09:11:17;;;;;;;16.02;11.10;;;;;;;;;;5064205;28;20226;-79
2023/07/05 09:13:42;;;;;;;13.70;10.60;;;;;;;;;;5065417;28;20781;-79
2023/07/05 09:16:11;;;;;;;13.85;11.35;;;;;;;;;;5065688;28;20217;-80
2023/07/05 09:18:36;;;;;;;17.83;11.20;;;;;;;;;;5064031;28;20244;-79
2023/07/05 09:21:10;;;;;;;16.88;11.00;;;;;;;;;;5064942;28;20720;-79
2023/07/05 09:23:35;;;;;;;16.20;10.95;;;;;;;;;;5066045;28;20232;-80
2023/07/05 09:26:05;;;;;;;16.38;11.25;;;;;;;;;;5064008;28;20228;-80
2023/07/05 09:28:33;;;;;;;16.52;11.40;;;;;;;;;;5048544;28;20233;-81
2023/07/05 09:30:58;;;;;;;15.95;10.63;;;;;;;;;;5057938;28;20220;-79
2023/07/05 09:33:27;;;;;;;16.25;11.10;;;;;;;;;;5064515;28;20217;-80
2023/07/05 09:35:52;;;;;;;14.50;10.35;;;;;;;;;;5047920;28;20697;-79
2023/07/05 09:38:31;;;;;;;14.27;10.38;;;;;;;;;;5063029;28;20236;-80
2023/07/05 09:41:06;;;;;;;13.68;10.48;;;;;;;;;;5045935;28;20240;-80
2023/07/05 09:43:32;;;;;;;15.65;10.95;;;;;;;;;;5046497;28;20220;-80
2023/07/05 09:46:01;;;;;;;11.45;9.07;;;;;;;;;;5046270;28;20425;-80
2023/07/05 09:48:26;;;;;;;12.25;9.75;;;;;;;;;;5063955;28;20220;-80
2023/07/05 09:50:51;;;;;;;16.83;9.98;;;;;;;;;;5063916;28;20224;-80
2023/07/05 09:53:35;;;;;;;14.50;10.07;;;;;;;;;;5063844;28;20873;-80
2023/07/05 09:56:04;;;;;;;13.60;9.82;;;;;;;;;;5080464;28;20322;-80
2023/07/05 09:58:29;;;;;;;13.35;10.07;;;;;;;;;;5048528;28;20251;-80
2023/07/05 10:00:55;;;;;;;14.68;10.13;;;;;;;;;;5063822;28;20697;-79
2023/07/05 10:03:21;;;;;;;14.23;10.38;;;;;;;;;;5064541;28;20227;-79
2023/07/05 10:05:53;;;;;;;15.73;9.75;;;;;;;;;;5048372;28;20290;-79
2023/07/05 10:08:18;;;;;;;14.32;10.25;;;;;;;;;;5041139;28;20701;-79
2023/07/05 10:10:43;;;;;;;15.63;10.52;;;;;;;;;;5050735;28;20242;-78
2023/07/05 10:13:15;;;;;;;13.85;10.52;;;;;;;;;;5051280;28;20224;-79
2023/07/05 10:15:42;;;;;;;15.35;10.65;;;;;;;;;;5050579;28;20228;-79
2023/07/05 10:18:09;;;;;;;13.90;10.38;;;;;;;;;;5067562;28;20236;-80
2023/07/05 10:20:38;;;;;;;12.48;9.98;;;;;;;;;;5067019;28;20252;-79
2023/07/05 10:23:04;;;;;;;14.05;10.70;;;;;;;;;;5050210;28;20217;-79
2023/07/05 10:25:33;;;;;;;18.20;10.10;;;;;;;;;;5068203;28;20216;-79
2023/07/05 10:27:59;;;;;;;19.70;11.45;;;;;;;;;;5066901;28;20224;-79
2023/07/05 10:30:25;;;;;;;11.65;8.88;;;;;;;;;;5066631;28;20217;-78
2023/07/05 10:33:07;;;;;;;13.38;9.32;;;;;;;;;;5065828;28;20282;-80
2023/07/05 10:35:33;;;;;;;10.80;8.40;;;;;;;;;;5064892;28;20262;-79
2023/07/05 10:37:58;;;;;;;13.35;8.52;;;;;;;;;;5066759;28;20228;-79
2023/07/05 10:40:24;;;;;;;14.43;8.35;;;;;;;;;;5050545;28;20227;-78
2023/07/05 10:42:50;;;;;;;11.23;7.95;;;;;;;;;;5066688;28;20258;-79
2023/07/05 10:45:16;;;;;;;15.82;8.70;;;;;;;;;;5067651;28;20243;-80
2023/07/05 10:47:41;;;;;;;11.38;8.65;;;;;;;;;;5065890;28;20598;-79
2023/07/05 10:50:07;;;;;;;13.30;8.25;;;;;;;;;;5052503;28;20289;-80
2023/07/05 10:52:33;;;;;;;13.27;8.55;;;;;;;;;;5053695;28;20239;-79
2023/07/05 10:55:01;;;;;;;12.95;8.20;;;;;;;;;;5068413;28;20243;-79
2023/07/05 10:57:53;;;;;;;11.75;8.40;;;;;;;;;;5073158;28;20208;-79
2023/07/05 11:00:20;;;;;;;13.23;8.50;;;;;;;;;;5052117;28;20774;-78
2023/07/05 11:02:46;;;;;;;12.88;8.43;;;;;;;;;;5047415;28;20274;-79
2023/07/05 11:05:32;;;;;;;13.18;8.20;;;;;;;;;;5031866;28;20217;-79
2023/07/05 11:07:58;;;;;;;12.00;8.00;;;;;;;;;;5072695;28;20672;-79
2023/07/05 11:10:23;;;;;;;13.02;8.20;;;;;;;;;;5048106;28;20214;-79
2023/07/05 11:12:48;;;;;;;12.63;7.97;;;;;;;;;;5043213;28;20225;-79
2023/07/05 11:15:14;;;;;;;11.00;7.82;;;;;;;;;;5046492;28;20225;-79
2023/07/05 11:17:39;;;;;;;13.15;7.80;;;;;;;;;;5054854;28;20855;-79
2023/07/05 11:20:28;;;;;;;10.38;7.80;;;;;;;;;;5048644;28;20243;-79
2023/07/05 11:22:53;;;;;;;13.48;7.70;;;;;;;;;;5066520;28;20246;-80
2023/07/05 11:25:18;;;;;;;10.50;7.80;;;;;;;;;;5049902;28;20220;-79
2023/07/05 11:27:51;;;;;;;12.52;8.25;;;;;;;;;;5046876;28;20282;-79
2023/07/05 11:30:37;;;;;;;12.38;8.23;;;;;;;;;;5046023;28;20232;-79
2023/07/05 11:33:02;;;;;;;16.48;8.65;;;;;;;;;;5063766;28;20694;-79
2023/07/05 11:35:45;;;;;;;12.30;8.02;;;;;;;;;;5066630;28;20251;-79
2023/07/05 11:38:30;;;;;;;14.68;8.13;;;;;;;;;;5021075;28;20225;-79
2023/07/05 11:40:56;;;;;;;11.82;7.35;;;;;;;;;;5046679;28;20214;-78
2023/07/05 11:43:37;;;;;;;10.90;7.05;;;;;;;;;;5045269;28;20232;-80
2023/07/05 11:46:04;;;;;;;9.25;6.25;;;;;;;;;;5038751;28;20359;-79
2023/07/05 11:48:39;;;;;;;10.27;5.95;;;;;;;;;;5044168;28;20224;-78
2023/07/05 11:51:08;;;;;;;10.43;6.25;;;;;;;;;;5052839;28;20228;-80
2023/07/05 11:53:34;;;;;;;9.98;6.30;;;;;;;;;;5029189;28;20234;-78
2023/07/05 11:55:59;;;;;;;11.63;6.30;;;;;;;;;;5043820;28;20222;-79
2023/07/05 11:58:27;;;;;;;12.80;6.22;;;;;;;;;;5061667;28;20245;-79
2023/07/05 12:00:58;;;;;;;16.25;5.85;;;;;;;;;;5061739;28;20749;-79
2023/07/05 12:03:24;;;;;;;10.20;5.05;;;;;;;;;;5055394;28;20712;-80
2023/07/05 12:06:04;;;;;;;8.95;4.40;;;;;;;;;;5045128;28;20253;-78
2023/07/05 12:08:34;;;;;;;8.13;4.53;;;;;;;;;;5045876;28;20295;-79
2023/07/05 12:10:59;;;;;;;6.05;4.10;;;;;;;;;;5044311;28;20251;-78
2023/07/05 12:13:26;;;;;;;7.78;4.20;;;;;;;;;;5058580;28;20308;-78
2023/07/05 12:15:52;;;;;;;9.05;4.45;;;;;;;;;;5042438;28;20221;-78
2023/07/05 12:18:18;;;;;;;7.93;4.50;;;;;;;;;;5038708;28;20272;-79
2023/07/05 12:20:43;;;;;;;8.35;4.97;;;;;;;;;;5045582;28;20259;-78
2023/07/05 12:23:11;;;;;;;7.10;4.88;;;;;;;;;;5038019;28;20225;-78
2023/07/05 12:25:36;;;;;;;8.48;4.88;;;;;;;;;;5044635;28;20256;-80
2023/07/05 12:28:02;;;;;;;7.32;5.18;;;;;;;;;;5034747;28;20339;-81
2023/07/05 12:30:28;;;;;;;10.50;6.03;;;;;;;;;;5045340;28;20359;-77
2023/07/05 12:32:54;;;;;;;10.05;6.10;;;;;;;;;;5044499;28;20315;-78
2023/07/05 12:35:21;;;;;;;9.40;6.22;;;;;;;;;;5037985;28;20310;-78
2023/07/05 12:37:46;;;;;;;9.57;6.05;;;;;;;;;;5058845;28;20221;-76
2023/07/05 12:40:13;;;;;;;15.93;6.80;;;;;;;;;;5047015;28;20661;-77
2023/07/05 12:42:48;;;;;;;10.90;6.72;;;;;;;;;;5048667;28;20307;-79
2023/07/05 12:45:14;;;;;;;11.90;6.45;;;;;;;;;;5068154;28;20794;-78
2023/07/05 12:47:41;;;;;;;11.15;6.80;;;;;;;;;;5044213;28;20234;-78
2023/07/05 12:50:07;;;;;;;8.68;6.22;;;;;;;;;;5057904;28;20232;-78
2023/07/05 12:52:33;;;;;;;11.43;6.72;;;;;;;;;;5061747;28;20225;-78
2023/07/05 12:54:58;;;;;;;10.27;7.20;;;;;;;;;;5062278;28;20225;-78
2023/07/05 12:57:27;;;;;;;10.07;7.18;;;;;;;;;;5065550;28;20378;-77
2023/07/05 12:59:53;;;;;;;10.18;6.65;;;;;;;;;;5062690;28;20240;-78
2023/07/05 13:02:31;;;;;;;10.63;6.85;;;;;;;;;;5045279;28;20709;-77
2023/07/05 13:04:56;;;;;;;9.30;6.53;;;;;;;;;;5061741;28;20233;-77
2023/07/05 13:07:22;;;;;;;9.35;6.72;;;;;;;;;;5048712;28;20897;-77
2023/07/05 13:09:48;;;;;;;11.32;6.93;;;;;;;;;;5064378;28;20229;-77
2023/07/05 13:12:13;;;;;;;9.82;6.80;;;;;;;;;;5064311;28;20220;-77
2023/07/05 13:14:40;;;;;;;12.40;7.28;;;;;;;;;;5064966;28;20235;-76
2023/07/05 13:17:15;;;;;;;10.07;6.63;;;;;;;;;;5045468;28;20220;-77
2023/07/05 13:19:43;;;;;;;11.15;6.95;;;;;;;;;;5063080;28;20246;-78
2023/07/05 13:22:26;;;;;;;11.32;7.22;;;;;;;;;;5063211;28;20220;-77
2023/07/05 13:24:51;;;;;;;12.70;7.35;;;;;;;;;;5046812;28;20635;-77
2023/07/05 13:27:19;;;;;;;12.40;7.75;;;;;;;;;;5066072;28;20307;-77
2023/07/05 13:29:44;;;;;;;12.68;7.40;;;;;;;;;;5065706;28;20716;-77
2023/07/05 13:32:23;;;;;;;12.10;7.70;;;;;;;;;;5065580;28;20227;-78
2023/07/05 13:34:48;;;;;;;14.93;8.15;;;;;;;;;;5047622;28;20293;-77
2023/07/05 13:37:14;;;;;;;14.30;7.88;;;;;;;;;;5065497;28;20662;-77
2023/07/05 13:39:40;;;;;;;10.45;7.50;;;;;;;;;;5065584;28;20237;-77
2023/07/05 13:42:08;;;;;;;13.00;8.05;;;;;;;;;;5039709;28;20224;-77
2023/07/05 13:44:33;;;;;;;13.60;7.95;;;;;;;;;;5076265;28;20731;-77
2023/07/05 13:46:58;;;;;;;13.70;7.82;;;;;;;;;;5048891;28;20229;-77
2023/07/05 13:49:24;;;;;;;11.40;7.95;;;;;;;;;;5048243;28;20955;-77
2023/07/05 13:51:53;;;;;;;15.50;7.57;;;;;;;;;;5063160;28;20764;-77
2023/07/05 13:54:18;;;;;;;13.02;7.43;;;;;;;;;;5064645;28;20316;-76
2023/07/05 13:56:43;;;;;;;11.13;7.40;;;;;;;;;;5046792;28;20300;-76
2023/07/05 13:59:10;;;;;;;12.90;7.40;;;;;;;;;;5058830;28;20657;-77
2023/07/05 14:01:36;;;;;;;14.32;7.65;;;;;;;;;;5067354;28;20232;-77
2023/07/05 14:04:01;;;;;;;12.80;7.85;;;;;;;;;;5049696;28;20224;-78
2023/07/05 14:06:27;;;;;;;11.80;8.00;;;;;;;;;;5051739;28;20240;-77
2023/07/05 14:08:52;;;;;;;13.45;8.25;;;;;;;;;;5050959;28;20255;-77
2023/07/05 14:11:27;;;;;;;18.60;9.10;;;;;;;;;;5067420;28;20216;-77
2023/07/05 14:13:53;;;;;;;18.00;8.75;;;;;;;;;;5066612;28;20229;-77
2023/07/05 14:16:21;;;;;;;19.10;9.50;;;;;;;;;;5068351;28;20779;-77
2023/07/05 14:18:47;;;;;;;19.98;8.85;;;;;;;;;;5050206;28;20748;-77
2023/07/05 14:21:23;;;;;;;18.63;10.05;;;;;;;;;;5068201;28;20212;-77